createdAt,value
2022-11-12T00:00:59.593Z,20.10
2022-11-12T00:03:27.685Z,19.13
2022-11-12T00:05:54.793Z,24.37
2022-11-12T00:08:22.626Z,16.37
2022-11-12T00:10:49.657Z,18.73
2022-11-12T00:13:16.900Z,18.27
2022-11-12T00:15:46.678Z,16.93
2022-11-12T00:18:13.800Z,17.47
2022-11-12T00:20:40.829Z,17.77
2022-11-12T00:23:08.115Z,17.23
2022-11-12T00:25:36.229Z,15.87
2022-11-12T00:28:08.917Z,14.40
2022-11-12T00:30:38.620Z,18.20
2022-11-12T00:33:05.537Z,17.17
2022-11-12T00:35:33.763Z,19.07
2022-11-12T00:38:01.360Z,15.30
2022-11-12T00:40:29.478Z,17.00
2022-11-12T00:42:56.863Z,16.20
2022-11-12T00:45:25.070Z,14.40
2022-11-12T00:47:56.682Z,15.77
2022-11-12T00:50:24.176Z,17.77
2022-11-12T00:52:54.654Z,17.13
2022-11-12T00:55:21.559Z,13.93
2022-11-12T00:57:48.702Z,14.63
2022-11-12T01:00:18.121Z,13.27
2022-11-12T01:02:51.111Z,15.87
2022-11-12T01:05:20.072Z,14.57
2022-11-12T01:07:51.649Z,15.63
2022-11-12T01:10:20.155Z,13.90
2022-11-12T01:12:46.997Z,14.40
2022-11-12T01:15:14.127Z,15.33
2022-11-12T01:17:41.246Z,14.50
2022-11-12T01:20:08.660Z,15.20
2022-11-12T01:22:35.601Z,13.70
2022-11-12T01:25:02.766Z,17.60
2022-11-12T01:27:30.469Z,14.40
2022-11-12T01:29:57.289Z,18.20
2022-11-12T01:32:24.235Z,12.07
2022-11-12T01:34:51.727Z,12.93
2022-11-12T01:37:18.919Z,14.17
2022-11-12T01:39:45.989Z,12.63
2022-11-12T01:42:13.170Z,12.83
2022-11-12T01:44:44.661Z,17.80
2022-11-12T01:47:11.607Z,11.77
2022-11-12T01:49:57.305Z,13.67
2022-11-12T01:52:39.733Z,13.20
2022-11-12T01:55:20.081Z,12.53
2022-11-12T01:58:00.159Z,13.67
2022-11-12T02:00:27.270Z,14.63
2022-11-12T02:02:59.507Z,12.70
2022-11-12T02:05:29.615Z,14.93
2022-11-12T02:07:58.768Z,16.10
2022-11-12T02:10:26.229Z,14.93
2022-11-12T02:13:13.229Z,14.83
2022-11-12T02:15:41.749Z,12.30
2022-11-12T02:18:09.151Z,13.97
2022-11-12T02:20:38.300Z,16.17
2022-11-12T02:23:07.590Z,14.77
2022-11-12T02:25:35.403Z,14.80
2022-11-12T02:28:06.913Z,16.07
2022-11-12T02:30:43.426Z,14.37
2022-11-12T02:33:10.550Z,14.97
2022-11-12T02:35:37.857Z,12.37
2022-11-12T02:38:06.283Z,14.60
2022-11-12T02:40:33.488Z,13.53
2022-11-12T02:43:01.067Z,15.10
2022-11-12T02:45:28.825Z,15.47
2022-11-12T02:47:55.809Z,15.93
2022-11-12T02:50:22.729Z,16.23
2022-11-12T02:52:50.820Z,15.20
2022-11-12T02:55:18.021Z,18.77
2022-11-12T02:57:45.137Z,17.63
2022-11-12T03:00:13.447Z,15.13
2022-11-12T03:02:42.959Z,16.63
2022-11-12T03:05:11.126Z,13.83
2022-11-12T03:07:38.691Z,16.17
2022-11-12T03:10:06.239Z,19.03
2022-11-12T03:12:33.324Z,17.83
2022-11-12T03:15:00.415Z,16.50
2022-11-12T03:17:27.432Z,16.27
2022-11-12T03:19:54.532Z,17.60
2022-11-12T03:22:21.797Z,16.83
2022-11-12T03:24:48.831Z,17.53
2022-11-12T03:27:16.101Z,17.97
2022-11-12T03:29:43.147Z,18.63
2022-11-12T03:32:10.305Z,15.43
2022-11-12T03:34:37.418Z,19.00
2022-11-12T03:37:04.331Z,17.27
2022-11-12T03:39:31.503Z,14.87
2022-11-12T03:41:58.591Z,20.60
2022-11-12T03:44:25.715Z,21.70
2022-11-12T03:46:52.572Z,19.03
2022-11-12T03:49:19.418Z,20.77
2022-11-12T03:51:46.894Z,19.10
2022-11-12T03:54:14.034Z,23.57
2022-11-12T03:56:41.169Z,24.20
2022-11-12T03:59:08.058Z,22.83
2022-11-12T04:01:35.394Z,20.70
2022-11-12T04:04:02.296Z,22.50
2022-11-12T04:06:48.036Z,20.70
2022-11-12T04:09:15.084Z,23.17
2022-11-12T04:11:42.198Z,18.63
2022-11-12T04:14:09.065Z,22.67
2022-11-12T04:16:54.695Z,22.03
2022-11-12T04:19:40.285Z,19.07
2022-11-12T04:22:10.911Z,24.30
2022-11-12T04:24:59.053Z,16.27
2022-11-12T04:27:27.339Z,21.83
2022-11-12T04:30:13.322Z,18.23
2022-11-12T04:32:50.901Z,23.87
2022-11-12T04:35:19.201Z,21.43
2022-11-12T04:37:47.002Z,22.37
2022-11-12T04:40:41.285Z,22.63
2022-11-12T04:43:32.175Z,26.40
2022-11-12T04:46:00.638Z,21.27
2022-11-12T04:48:27.853Z,21.53
2022-11-12T04:50:58.645Z,17.80
2022-11-12T04:53:26.411Z,22.13
2022-11-12T04:55:55.341Z,21.70
2022-11-12T04:58:22.607Z,18.90
2022-11-12T05:00:50.637Z,20.10
2022-11-12T05:03:18.591Z,20.47
2022-11-12T05:05:45.578Z,26.17
2022-11-12T05:08:12.427Z,21.03
2022-11-12T05:10:40.509Z,21.10
2022-11-12T05:13:07.316Z,26.40
2022-11-12T05:15:34.142Z,26.77
2022-11-12T05:18:01.193Z,26.43
2022-11-12T05:20:28.270Z,24.07
2022-11-12T05:23:06.041Z,25.83
2022-11-12T05:25:34.838Z,25.10
2022-11-12T05:28:01.730Z,25.90
2022-11-12T05:30:28.881Z,29.77
2022-11-12T05:32:56.026Z,27.77
2022-11-12T05:35:23.173Z,26.30
2022-11-12T05:37:50.087Z,29.23
2022-11-12T05:40:17.215Z,26.80
2022-11-12T05:42:45.364Z,28.80
2022-11-12T05:45:12.393Z,25.50
2022-11-12T05:47:39.234Z,26.10
2022-11-12T05:50:06.803Z,25.73
2022-11-12T05:52:33.832Z,21.40
2022-11-12T05:55:00.665Z,26.83
2022-11-12T05:57:27.986Z,26.77
2022-11-12T05:59:55.011Z,25.47
2022-11-12T06:02:22.262Z,26.23
2022-11-12T06:04:49.300Z,27.60
2022-11-12T06:07:16.477Z,27.77
2022-11-12T06:09:43.599Z,28.03
2022-11-12T06:12:10.429Z,37.17
2022-11-12T06:14:37.817Z,32.27
2022-11-12T06:17:04.711Z,30.40
2022-11-12T06:19:31.565Z,28.87
2022-11-12T06:21:58.453Z,30.20
2022-11-12T06:24:27.474Z,27.63
2022-11-12T06:26:57.663Z,28.03
2022-11-12T06:29:24.810Z,31.73
2022-11-12T06:31:51.932Z,32.03
2022-11-12T06:34:18.790Z,31.87
2022-11-12T06:36:48.768Z,28.60
2022-11-12T06:39:17.724Z,32.63
2022-11-12T06:41:44.909Z,32.43
2022-11-12T06:44:12.030Z,28.30
2022-11-12T06:46:39.234Z,33.93
2022-11-12T06:49:06.431Z,29.57
2022-11-12T06:51:33.462Z,31.70
2022-11-12T06:54:00.283Z,32.03
2022-11-12T06:56:27.144Z,29.37
2022-11-12T06:58:53.992Z,33.83
2022-11-12T07:01:20.951Z,30.30
2022-11-12T07:03:52.552Z,28.73
2022-11-12T07:06:20.605Z,33.73
2022-11-12T07:08:50.345Z,34.17
2022-11-12T07:11:19.592Z,32.13
2022-11-12T07:13:47.823Z,30.03
2022-11-12T07:16:18.700Z,35.13
2022-11-12T07:18:49.657Z,28.57
2022-11-12T07:21:20.399Z,34.50
2022-11-12T07:23:48.011Z,31.97
2022-11-12T07:26:16.296Z,34.80
2022-11-12T07:28:45.859Z,38.97
2022-11-12T07:31:14.721Z,32.07
2022-11-12T07:33:42.900Z,32.37
2022-11-12T07:36:15.605Z,31.00
2022-11-12T07:38:43.580Z,31.03
2022-11-12T07:41:18.744Z,29.30
2022-11-12T07:43:47.765Z,28.27
2022-11-12T07:46:21.942Z,28.03
2022-11-12T07:48:49.206Z,34.23
2022-11-12T07:51:17.431Z,32.03
2022-11-12T07:53:45.891Z,32.90
2022-11-12T07:56:18.959Z,32.07
2022-11-12T07:58:46.368Z,28.23
2022-11-12T08:01:34.343Z,29.30
2022-11-12T08:04:03.379Z,30.07
2022-11-12T08:06:31.677Z,31.23
2022-11-12T08:09:00.451Z,30.90
2022-11-12T08:11:28.019Z,33.93
2022-11-12T08:13:55.025Z,29.63
2022-11-12T08:16:22.256Z,27.97
2022-11-12T08:18:49.535Z,33.20
2022-11-12T08:21:18.516Z,32.47
2022-11-12T08:23:46.179Z,36.17
2022-11-12T08:26:15.935Z,34.47
2022-11-12T08:28:43.071Z,32.47
2022-11-12T08:31:15.571Z,38.50
2022-11-12T08:33:42.917Z,37.13
2022-11-12T08:36:11.805Z,32.03
2022-11-12T08:38:39.322Z,40.50
2022-11-12T08:41:08.977Z,36.03
2022-11-12T08:43:36.616Z,38.60
2022-11-12T08:46:04.612Z,41.07
2022-11-12T08:48:33.155Z,34.83
2022-11-12T08:51:02.432Z,33.80
2022-11-12T08:53:29.419Z,37.70
2022-11-12T08:55:57.441Z,40.27
2022-11-12T08:58:25.956Z,37.40
2022-11-12T09:00:53.756Z,41.63
2022-11-12T09:03:23.233Z,43.57
2022-11-12T09:05:51.213Z,40.13
2022-11-12T09:08:22.078Z,38.50
2022-11-12T09:10:49.500Z,39.00
2022-11-12T09:13:18.204Z,41.97
2022-11-12T09:15:45.878Z,41.27
2022-11-12T09:18:15.861Z,43.93
2022-11-12T09:20:43.053Z,42.80
2022-11-12T09:23:13.600Z,42.73
2022-11-12T09:25:41.622Z,41.93
2022-11-12T09:28:09.741Z,38.97
2022-11-12T09:30:38.416Z,39.83
2022-11-12T09:33:05.500Z,41.50
2022-11-12T09:35:32.842Z,41.17
2022-11-12T09:37:59.896Z,46.57
2022-11-12T09:40:51.158Z,34.90
2022-11-12T09:43:25.823Z,39.23
2022-11-12T09:46:21.485Z,38.00
2022-11-12T09:48:49.400Z,36.87
2022-11-12T09:51:30.615Z,34.00
2022-11-12T09:53:58.486Z,31.00
2022-11-12T09:56:26.574Z,31.70
2022-11-12T09:58:54.036Z,23.77
2022-11-12T10:01:58.626Z,30.00
2022-11-12T10:04:37.638Z,24.87
2022-11-12T10:07:42.387Z,25.87
2022-11-12T10:10:31.096Z,27.87
2022-11-12T10:12:57.882Z,29.63
2022-11-12T10:15:55.552Z,28.87
2022-11-12T10:18:25.663Z,28.60
2022-11-12T10:21:03.225Z,26.63
2022-11-12T10:23:40.565Z,26.83
2022-11-12T10:26:19.081Z,31.00
2022-11-12T10:29:13.407Z,25.53
2022-11-12T10:31:40.438Z,28.50
2022-11-12T10:34:24.268Z,28.63
2022-11-12T10:37:05.073Z,24.80
2022-11-12T10:39:39.198Z,30.87
2022-11-12T10:42:12.457Z,29.60
2022-11-12T10:44:40.840Z,29.40
2022-11-12T10:47:26.931Z,26.07
2022-11-12T10:50:09.301Z,28.20
2022-11-12T10:52:36.675Z,27.73
2022-11-12T10:55:25.520Z,26.67
2022-11-12T10:58:19.813Z,27.30
2022-11-12T11:01:00.930Z,24.97
2022-11-12T11:03:35.550Z,27.67
2022-11-12T11:06:10.314Z,27.63
2022-11-12T11:08:45.756Z,28.60
2022-11-12T11:11:28.951Z,30.40
2022-11-12T11:14:25.575Z,30.77
2022-11-12T11:16:55.192Z,27.83
2022-11-12T11:19:22.614Z,24.77
2022-11-12T11:21:49.727Z,26.60
2022-11-12T11:24:37.980Z,26.00
2022-11-12T11:27:28.370Z,28.67
2022-11-12T11:30:06.471Z,28.83
2022-11-12T11:33:19.473Z,26.00
2022-11-12T11:36:12.926Z,25.13
2022-11-12T11:38:57.725Z,25.37
2022-11-12T11:41:43.659Z,25.80
2022-11-12T11:44:25.753Z,27.83
2022-11-12T11:46:55.617Z,26.50
2022-11-12T11:49:55.157Z,29.73
2022-11-12T11:52:40.799Z,29.47
2022-11-12T11:55:28.833Z,33.17
2022-11-12T11:58:13.506Z,27.43
2022-11-12T12:00:43.168Z,27.50
2022-11-12T12:03:20.339Z,26.83
2022-11-12T12:05:58.591Z,30.63
2022-11-12T12:08:35.048Z,36.60
2022-11-12T12:11:14.166Z,30.90
2022-11-12T12:14:14.642Z,34.70
2022-11-12T12:16:47.217Z,37.10
2022-11-12T12:19:41.704Z,31.03
2022-11-12T12:22:16.672Z,37.23
2022-11-12T12:25:12.506Z,30.93
2022-11-12T12:28:00.807Z,30.70
2022-11-12T12:30:35.219Z,28.17
2022-11-12T12:33:39.589Z,27.37
2022-11-12T12:36:15.842Z,27.37
2022-11-12T12:39:08.244Z,32.37
2022-11-12T12:41:41.238Z,32.13
2022-11-12T12:44:10.533Z,32.67
2022-11-12T12:46:49.394Z,31.57
2022-11-12T12:49:22.336Z,30.50
2022-11-12T12:51:54.446Z,29.80
2022-11-12T12:54:37.829Z,28.00
2022-11-12T12:57:05.068Z,57.83
2022-11-12T12:59:32.571Z,44.80
2022-11-12T13:02:02.668Z,44.93
2022-11-12T13:04:57.476Z,33.83
2022-11-12T13:07:44.372Z,31.63
2022-11-12T13:10:41.938Z,34.43
2022-11-12T13:13:30.673Z,32.87
2022-11-12T13:16:00.612Z,31.97
2022-11-12T13:18:40.125Z,38.87
2022-11-12T13:21:15.405Z,38.70
2022-11-12T13:24:09.300Z,41.10
2022-11-12T13:26:51.091Z,41.37
2022-11-12T13:29:31.129Z,41.47
2022-11-12T13:32:29.591Z,36.00
2022-11-12T13:35:31.145Z,35.27
2022-11-12T13:38:12.816Z,37.97
2022-11-12T13:40:53.965Z,35.23
2022-11-12T13:43:39.961Z,33.83
2022-11-12T13:46:11.008Z,34.07
2022-11-12T13:49:07.334Z,31.87
2022-11-12T13:51:46.690Z,31.07
2022-11-12T13:54:36.741Z,29.93
2022-11-12T13:57:27.071Z,34.47
2022-11-12T14:00:20.729Z,32.37
2022-11-12T14:03:00.544Z,32.70
2022-11-12T14:05:31.028Z,33.07
2022-11-12T14:08:16.083Z,37.30
2022-11-12T14:11:08.436Z,32.93
2022-11-12T14:13:41.420Z,35.07
2022-11-12T14:16:20.477Z,32.73
2022-11-12T14:19:08.464Z,33.83
2022-11-12T14:21:35.528Z,38.70
2022-11-12T14:24:03.596Z,38.60
2022-11-12T14:26:42.787Z,38.07
2022-11-12T14:29:17.728Z,38.40
2022-11-12T14:31:45.562Z,38.83
2022-11-12T14:34:21.521Z,41.67
2022-11-12T14:36:49.289Z,39.90
2022-11-12T14:39:16.209Z,37.50
2022-11-12T14:41:46.106Z,41.13
2022-11-12T14:44:22.357Z,42.17
2022-11-12T14:46:53.815Z,40.80
2022-11-12T14:49:39.354Z,39.53
2022-11-12T14:52:15.776Z,38.70
2022-11-12T14:54:51.479Z,38.43
2022-11-12T14:57:25.096Z,37.00
2022-11-12T14:59:52.206Z,35.77
2022-11-12T15:02:53.392Z,32.90
2022-11-12T15:05:22.181Z,39.53
2022-11-12T15:07:59.743Z,45.27
2022-11-12T15:10:36.089Z,45.07
2022-11-12T15:13:17.301Z,47.70
2022-11-12T15:16:05.542Z,39.60
2022-11-12T15:18:33.926Z,36.07
2022-11-12T15:21:23.407Z,35.83
2022-11-12T15:24:18.800Z,32.83
2022-11-12T15:26:48.251Z,35.33
2022-11-12T15:29:32.014Z,39.87
2022-11-12T15:32:23.821Z,38.50
2022-11-12T15:34:52.264Z,34.93
2022-11-12T15:37:19.207Z,42.13
2022-11-12T15:39:50.150Z,35.23
2022-11-12T15:42:39.879Z,35.97
2022-11-12T15:45:16.544Z,35.03
2022-11-12T15:47:43.634Z,36.13
2022-11-12T15:50:13.629Z,35.20
2022-11-12T15:52:41.451Z,42.53
2022-11-12T15:55:09.746Z,34.33
2022-11-12T15:57:43.907Z,33.53
2022-11-12T16:00:15.532Z,31.93
2022-11-12T16:02:44.103Z,31.03
2022-11-12T16:05:15.773Z,31.33
2022-11-12T16:07:42.955Z,34.23
2022-11-12T16:10:14.942Z,36.10
2022-11-12T16:12:43.063Z,33.30
2022-11-12T16:15:18.348Z,33.37
2022-11-12T16:17:46.359Z,28.53
2022-11-12T16:20:21.350Z,34.93
2022-11-12T16:22:49.528Z,35.13
2022-11-12T16:25:17.864Z,33.30
2022-11-12T16:27:44.997Z,31.50
2022-11-12T16:30:22.302Z,31.73
2022-11-12T16:32:49.554Z,31.37
2022-11-12T16:35:17.322Z,32.27
2022-11-12T16:37:45.593Z,34.60
2022-11-12T16:40:31.357Z,32.60
2022-11-12T16:42:58.568Z,33.73
2022-11-12T16:45:34.698Z,36.83
2022-11-12T16:48:11.443Z,35.77
2022-11-12T16:50:38.370Z,34.00
2022-11-12T16:53:05.425Z,29.80
2022-11-12T16:55:32.280Z,32.57
2022-11-12T16:57:59.141Z,31.17
2022-11-12T17:00:26.369Z,29.90
2022-11-12T17:02:53.766Z,33.00
2022-11-12T17:05:25.544Z,30.73
2022-11-12T17:07:57.927Z,32.27
2022-11-12T17:10:25.513Z,29.07
2022-11-12T17:12:53.022Z,34.27
2022-11-12T17:15:20.092Z,27.20
2022-11-12T17:17:47.241Z,33.00
2022-11-12T17:20:14.414Z,32.17
2022-11-12T17:22:41.507Z,30.67
2022-11-12T17:25:09.260Z,32.90
2022-11-12T17:27:36.164Z,30.67
2022-11-12T17:30:04.503Z,32.80
2022-11-12T17:32:32.200Z,32.83
2022-11-12T17:34:59.078Z,31.53
2022-11-12T17:37:25.957Z,33.77
2022-11-12T17:39:53.099Z,34.83
2022-11-12T17:42:19.950Z,34.23
2022-11-12T17:44:47.082Z,38.03
2022-11-12T17:47:13.955Z,36.90
2022-11-12T17:49:41.090Z,33.80
2022-11-12T17:52:08.277Z,38.97
2022-11-12T17:54:35.470Z,32.93
2022-11-12T17:57:02.562Z,43.00
2022-11-12T17:59:29.713Z,41.67
2022-11-12T18:01:56.923Z,39.93
2022-11-12T18:04:25.117Z,36.33
2022-11-12T18:06:53.631Z,38.50
2022-11-12T18:09:20.746Z,37.33
2022-11-12T18:11:50.763Z,35.57
2022-11-12T18:14:19.044Z,32.93
2022-11-12T18:16:46.297Z,35.97
2022-11-12T18:19:13.374Z,34.30
2022-11-12T18:21:40.590Z,41.60
2022-11-12T18:24:15.703Z,60.80
2022-11-12T18:26:44.311Z,52.60
2022-11-12T18:29:12.599Z,51.67
2022-11-12T18:31:40.661Z,57.03
2022-11-12T18:34:13.504Z,48.80
2022-11-12T18:36:40.330Z,41.70
2022-11-12T18:39:08.264Z,41.60
2022-11-12T18:41:35.389Z,42.37
2022-11-12T18:44:02.736Z,44.43
2022-11-12T18:46:29.660Z,46.43
2022-11-12T18:48:56.806Z,44.97
2022-11-12T18:51:23.931Z,46.40
2022-11-12T18:53:50.871Z,50.23
2022-11-12T18:56:20.070Z,55.13
2022-11-12T18:58:47.803Z,49.00
2022-11-12T19:01:20.539Z,54.73
2022-11-12T19:03:48.753Z,60.00
2022-11-12T19:06:16.693Z,60.03
2022-11-12T19:08:43.927Z,62.83
2022-11-12T19:11:13.181Z,57.47
2022-11-12T19:13:41.725Z,56.60
2022-11-12T19:16:14.510Z,58.73
2022-11-12T19:18:42.068Z,57.23
2022-11-12T19:21:18.730Z,59.07
2022-11-12T19:23:50.011Z,56.53
2022-11-12T19:26:20.100Z,56.70
2022-11-12T19:28:46.979Z,58.30
2022-11-12T19:31:20.017Z,59.03
2022-11-12T19:33:47.520Z,54.97
2022-11-12T19:36:17.337Z,52.77
2022-11-12T19:38:44.785Z,55.23
2022-11-12T19:41:19.511Z,59.80
2022-11-12T19:43:47.699Z,59.73
2022-11-12T19:46:15.337Z,53.00
2022-11-12T19:48:42.913Z,55.80
2022-11-12T19:51:12.372Z,52.60
2022-11-12T19:53:44.441Z,56.93
2022-11-12T19:56:13.635Z,53.73
2022-11-12T19:58:44.993Z,58.60
2022-11-12T20:01:14.228Z,52.87
2022-11-12T20:03:41.717Z,49.73
2022-11-12T20:06:20.105Z,52.73
2022-11-12T20:08:47.387Z,56.20
2022-11-12T20:11:16.253Z,56.20
2022-11-12T20:13:43.300Z,54.33
2022-11-12T20:16:13.985Z,57.00
2022-11-12T20:18:41.182Z,62.60
2022-11-12T20:21:09.285Z,66.57
2022-11-12T20:23:38.109Z,64.13
2022-11-12T20:26:10.501Z,68.20
2022-11-12T20:28:39.675Z,57.30
2022-11-12T20:31:08.089Z,57.43
2022-11-12T20:33:40.847Z,56.07
2022-11-12T20:36:12.123Z,57.30
2022-11-12T20:38:40.971Z,53.30
2022-11-12T20:41:12.272Z,56.07
2022-11-12T20:43:39.447Z,52.30
2022-11-12T20:46:06.293Z,51.37
2022-11-12T20:48:33.458Z,56.20
2022-11-12T20:51:25.046Z,49.60
2022-11-12T20:53:59.936Z,50.07
2022-11-12T20:56:29.988Z,49.70
2022-11-12T20:58:58.927Z,50.50
2022-11-12T21:01:27.633Z,55.07
2022-11-12T21:03:55.268Z,51.80
2022-11-12T21:06:24.875Z,48.97
2022-11-12T21:08:52.378Z,53.43
2022-11-12T21:11:22.521Z,56.57
2022-11-12T21:13:49.795Z,54.50
2022-11-12T21:16:16.975Z,58.23
2022-11-12T21:18:44.234Z,51.73
2022-11-12T21:21:15.533Z,48.20
2022-11-12T21:23:44.167Z,51.10
2022-11-12T21:26:16.542Z,54.40
2022-11-12T21:28:48.339Z,49.10
2022-11-12T21:31:17.983Z,55.73
2022-11-12T21:33:48.419Z,54.13
2022-11-12T21:36:16.709Z,56.67
2022-11-12T21:38:44.485Z,55.70
2022-11-12T21:41:13.756Z,57.70
2022-11-12T21:43:43.800Z,56.43
2022-11-12T21:46:14.508Z,59.17
2022-11-12T21:48:41.863Z,56.90
2022-11-12T21:51:14.288Z,63.17
2022-11-12T21:53:43.176Z,55.30
2022-11-12T21:56:18.414Z,54.70
2022-11-12T21:58:45.520Z,55.00
2022-11-12T22:01:21.266Z,53.43
2022-11-12T22:03:50.056Z,56.37
2022-11-12T22:06:18.663Z,54.27
2022-11-12T22:08:45.561Z,55.23
2022-11-12T22:11:14.651Z,51.23
2022-11-12T22:13:42.434Z,52.60
2022-11-12T22:16:11.736Z,55.13
2022-11-12T22:18:39.572Z,59.70
2022-11-12T22:21:10.317Z,53.83
2022-11-12T22:23:37.476Z,59.77
2022-11-12T22:26:07.088Z,51.90
2022-11-12T22:28:37.098Z,58.90
2022-11-12T22:31:10.415Z,61.07
2022-11-12T22:33:37.780Z,60.40
2022-11-12T22:36:07.949Z,56.40
2022-11-12T22:38:40.956Z,56.37
2022-11-12T22:41:10.491Z,51.87
2022-11-12T22:43:38.083Z,54.73
2022-11-12T22:46:12.035Z,55.13
2022-11-12T22:48:39.301Z,55.73
2022-11-12T22:51:10.540Z,52.53
2022-11-12T22:53:37.515Z,57.43
2022-11-12T22:56:08.345Z,57.13
2022-11-12T22:58:39.540Z,52.53
2022-11-12T23:01:08.572Z,51.40
2022-11-12T23:03:36.154Z,56.63
2022-11-12T23:06:06.508Z,63.67
2022-11-12T23:08:36.027Z,59.63
2022-11-12T23:11:09.338Z,56.27
2022-11-12T23:13:38.511Z,57.97
2022-11-12T23:16:11.613Z,64.00
2022-11-12T23:18:38.785Z,58.73
2022-11-12T23:21:11.018Z,61.10
2022-11-12T23:23:39.022Z,56.20
2022-11-12T23:26:20.637Z,51.87
2022-11-12T23:28:47.617Z,54.40
2022-11-12T23:31:28.117Z,53.73
2022-11-12T23:33:57.330Z,57.57
2022-11-12T23:36:26.230Z,51.47
2022-11-12T23:38:54.026Z,54.43
2022-11-12T23:41:23.004Z,55.93
2022-11-12T23:43:50.609Z,55.30
2022-11-12T23:46:17.645Z,55.57
2022-11-12T23:48:45.010Z,52.70
2022-11-12T23:51:18.598Z,53.80
2022-11-12T23:53:46.661Z,55.03
2022-11-12T23:56:15.587Z,48.03
2022-11-12T23:58:42.904Z,52.27
